Time;durP1;ratioP1;P1;durP2;ratioP2;P2;SDS_P1;SDS_P2;PMS_P1;PMS_P2;Temp;Humidity;BMP_temperature;BMP_pressure;BME280_temperature;BME280_humidity;BME280_pressure;Samples;Min_cycle;Max_cycle;Signal;HPM_P1;HPM_P2
2022/04/16 00:02:08;;;;;;;7.27;2.10;;;;;;;;;;5012834;28;20434;-64
2022/04/16 00:04:35;;;;;;;8.70;2.20;;;;;;;;;;5010287;28;20529;-64
2022/04/16 00:07:02;;;;;;;5.73;1.90;;;;;;;;;;5010359;28;20437;-64
2022/04/16 00:09:29;;;;;;;6.03;2.30;;;;;;;;;;5009654;28;20483;-64
2022/04/16 00:11:55;;;;;;;5.90;2.20;;;;;;;;;;5009104;28;20439;-64
2022/04/16 00:14:23;;;;;;;4.67;1.60;;;;;;;;;;5009958;28;20518;-64
2022/04/16 00:16:50;;;;;;;8.20;1.70;;;;;;;;;;5010902;28;21252;-64
2022/04/16 00:19:18;;;;;;;5.87;2.10;;;;;;;;;;5008962;28;20452;-64
2022/04/16 00:21:45;;;;;;;5.50;1.87;;;;;;;;;;5010086;28;20438;-64
2022/04/16 00:24:12;;;;;;;4.10;2.00;;;;;;;;;;5010210;28;20493;-64
2022/04/16 00:26:41;;;;;;;5.13;1.80;;;;;;;;;;5025908;28;20557;-64
2022/04/16 00:29:08;;;;;;;8.80;2.50;;;;;;;;;;5029107;28;20434;-64
2022/04/16 00:31:36;;;;;;;9.17;2.10;;;;;;;;;;5029953;28;20430;-64
2022/04/16 00:34:03;;;;;;;5.67;1.80;;;;;;;;;;5029678;28;20490;-64
2022/04/16 00:36:30;;;;;;;6.93;1.80;;;;;;;;;;5029436;28;20429;-64
2022/04/16 00:38:56;;;;;;;7.63;1.77;;;;;;;;;;5028340;28;20446;-64
2022/04/16 00:41:23;;;;;;;7.13;1.90;;;;;;;;;;5009222;28;20452;-64
2022/04/16 00:43:52;;;;;;;5.30;1.70;;;;;;;;;;5009937;28;20423;-65
2022/04/16 00:46:19;;;;;;;4.00;1.80;;;;;;;;;;5010076;28;20439;-64
2022/04/16 00:48:46;;;;;;;5.87;1.60;;;;;;;;;;5009518;28;20441;-65
2022/04/16 00:51:14;;;;;;;5.10;1.90;;;;;;;;;;5009178;28;20462;-64
2022/04/16 00:53:43;;;;;;;5.40;1.77;;;;;;;;;;5009676;28;20431;-64
2022/04/16 00:56:12;;;;;;;7.20;1.90;;;;;;;;;;5009547;28;20427;-64
2022/04/16 00:58:40;;;;;;;6.93;1.83;;;;;;;;;;5009014;28;21203;-64
2022/04/16 01:01:07;;;;;;;6.20;2.00;;;;;;;;;;5009462;28;20532;-63
2022/04/16 01:03:34;;;;;;;3.10;1.80;;;;;;;;;;5009642;28;20441;-64
2022/04/16 01:06:00;;;;;;;11.63;2.17;;;;;;;;;;5009082;28;20432;-64
2022/04/16 01:08:27;;;;;;;3.97;1.80;;;;;;;;;;5008180;28;20435;-64
2022/04/16 01:10:54;;;;;;;7.00;2.10;;;;;;;;;;5009343;28;20493;-64
2022/04/16 01:13:21;;;;;;;6.57;1.90;;;;;;;;;;5009052;28;20431;-64
2022/04/16 01:15:47;;;;;;;7.83;2.17;;;;;;;;;;5008188;28;20947;-64
2022/04/16 01:18:14;;;;;;;8.37;2.20;;;;;;;;;;5009379;28;20497;-64
2022/04/16 01:21:01;;;;;;;5.93;2.10;;;;;;;;;;5008797;28;20407;-64
2022/04/16 01:23:28;;;;;;;5.70;1.93;;;;;;;;;;5009341;28;21004;-64
2022/04/16 01:25:56;;;;;;;8.50;1.80;;;;;;;;;;5009293;28;20442;-64
2022/04/16 01:28:23;;;;;;;6.00;1.63;;;;;;;;;;5009019;28;20468;-64
2022/04/16 01:30:50;;;;;;;5.80;1.87;;;;;;;;;;5007818;28;20481;-64
2022/04/16 01:33:17;;;;;;;9.87;2.43;;;;;;;;;;5009067;28;20447;-64
2022/04/16 01:35:44;;;;;;;7.13;2.10;;;;;;;;;;5008781;28;20442;-64
2022/04/16 01:38:11;;;;;;;4.63;1.83;;;;;;;;;;5009174;28;20530;-64
2022/04/16 01:40:38;;;;;;;5.67;1.87;;;;;;;;;;5021779;28;20426;-64
2022/04/16 01:43:05;;;;;;;8.13;2.17;;;;;;;;;;5028647;28;20430;-64
2022/04/16 01:45:33;;;;;;;4.97;2.20;;;;;;;;;;5027175;28;20420;-64
2022/04/16 01:48:01;;;;;;;4.47;2.03;;;;;;;;;;5028327;28;20502;-64
2022/04/16 01:50:27;;;;;;;7.40;2.43;;;;;;;;;;5028006;28;20474;-64
2022/04/16 01:52:54;;;;;;;8.13;2.80;;;;;;;;;;5028595;28;20438;-64
2022/04/16 01:55:21;;;;;;;7.53;3.10;;;;;;;;;;5026972;28;20434;-64
2022/04/16 01:57:47;;;;;;;6.67;3.23;;;;;;;;;;5028063;28;20430;-64
2022/04/16 02:00:14;;;;;;;7.73;3.07;;;;;;;;;;5027189;28;20768;-64
2022/04/16 02:02:41;;;;;;;6.93;3.60;;;;;;;;;;5026750;28;20504;-64
2022/04/16 02:05:09;;;;;;;10.67;2.60;;;;;;;;;;5028160;28;20525;-64
2022/04/16 02:07:35;;;;;;;6.57;2.53;;;;;;;;;;5028198;28;20493;-64
2022/04/16 02:10:02;;;;;;;5.47;2.57;;;;;;;;;;5026641;28;20478;-64
2022/04/16 02:12:29;;;;;;;4.17;2.43;;;;;;;;;;5026969;28;20438;-64
2022/04/16 02:14:55;;;;;;;11.83;3.30;;;;;;;;;;5027796;28;20840;-64
2022/04/16 02:17:40;;;;;;;5.30;2.23;;;;;;;;;;5027730;28;20419;-64
2022/04/16 02:20:07;;;;;;;7.50;2.43;;;;;;;;;;5026372;28;20454;-64
2022/04/16 02:22:40;;;;;;;6.07;2.83;;;;;;;;;;5028298;28;20430;-64
2022/04/16 02:25:08;;;;;;;5.17;2.40;;;;;;;;;;5028099;28;21021;-64
2022/04/16 02:27:52;;;;;;;8.90;2.90;;;;;;;;;;5026702;28;20988;-64
2022/04/16 02:30:19;;;;;;;6.83;3.07;;;;;;;;;;5027945;28;20462;-64
2022/04/16 02:33:03;;;;;;;10.57;3.27;;;;;;;;;;5026794;28;20446;-64
2022/04/16 02:35:30;;;;;;;9.37;2.93;;;;;;;;;;5014097;28;20451;-64
2022/04/16 02:37:56;;;;;;;7.20;2.63;;;;;;;;;;5007379;28;20439;-64
2022/04/16 02:40:23;;;;;;;6.43;2.43;;;;;;;;;;5019509;28;20548;-63
2022/04/16 02:42:50;;;;;;;8.77;2.37;;;;;;;;;;5027725;28;20582;-64
2022/04/16 02:48:02;;;;;;;8.80;2.33;;;;;;;;;;5007967;28;20431;-64
2022/04/16 02:50:29;;;;;;;6.93;2.00;;;;;;;;;;5007857;28;20493;-64
2022/04/16 02:52:56;;;;;;;5.67;2.00;;;;;;;;;;5021706;28;20575;-64
2022/04/16 02:55:22;;;;;;;5.30;2.57;;;;;;;;;;5031432;28;21168;-64
2022/04/16 02:58:06;;;;;;;7.17;2.07;;;;;;;;;;5030494;28;20503;-64
2022/04/16 03:00:33;;;;;;;5.63;2.50;;;;;;;;;;5031477;28;20428;-65
2022/04/16 03:03:00;;;;;;;5.43;2.10;;;;;;;;;;5031171;28;20523;-64
2022/04/16 03:05:27;;;;;;;5.23;2.10;;;;;;;;;;5031356;28;20858;-64
2022/04/16 03:07:54;;;;;;;7.57;2.17;;;;;;;;;;5031375;28;20464;-64
2022/04/16 03:10:21;;;;;;;7.13;2.10;;;;;;;;;;5013048;28;20471;-64
2022/04/16 03:12:48;;;;;;;6.30;2.63;;;;;;;;;;5011286;28;20995;-64
2022/04/16 03:18:18;;;;;;;5.33;2.30;;;;;;;;;;5011377;28;20420;-63
2022/04/16 03:20:46;;;;;;;7.50;2.13;;;;;;;;;;5011288;28;20445;-63
2022/04/16 03:23:12;;;;;;;5.37;2.20;;;;;;;;;;5011487;28;20435;-63
2022/04/16 03:25:40;;;;;;;4.80;2.33;;;;;;;;;;5011661;28;20427;-62
2022/04/16 03:28:07;;;;;;;6.23;2.83;;;;;;;;;;5010776;28;20450;-63
2022/04/16 03:30:51;;;;;;;5.37;2.20;;;;;;;;;;5011119;28;20455;-63
2022/04/16 03:33:17;;;;;;;7.90;2.33;;;;;;;;;;5009976;28;20469;-63
2022/04/16 03:35:44;;;;;;;7.67;2.30;;;;;;;;;;5010928;28;20522;-63
2022/04/16 03:38:11;;;;;;;7.57;2.17;;;;;;;;;;5009845;28;20431;-63
2022/04/16 03:40:38;;;;;;;4.07;1.87;;;;;;;;;;5024887;28;20435;-63
2022/04/16 03:43:05;;;;;;;9.23;2.30;;;;;;;;;;5030724;28;20414;-62
2022/04/16 03:45:32;;;;;;;4.60;2.20;;;;;;;;;;5010555;28;20454;-63
2022/04/16 03:47:59;;;;;;;8.73;2.23;;;;;;;;;;5010730;28;20427;-63
2022/04/16 03:50:26;;;;;;;6.47;2.60;;;;;;;;;;5011540;28;20499;-63
2022/04/16 03:52:53;;;;;;;7.07;2.43;;;;;;;;;;5023393;28;20446;-63
2022/04/16 04:00:51;;;;;;;5.43;2.23;;;;;;;;;;5019161;28;20455;-61
2022/04/16 04:03:18;;;;;;;7.07;2.40;;;;;;;;;;5009718;28;21001;-61
2022/04/16 04:05:46;;;;;;;7.27;2.37;;;;;;;;;;5008503;28;20550;-60
2022/04/16 04:08:13;;;;;;;5.57;2.70;;;;;;;;;;5007684;28;20474;-63
2022/04/16 04:10:43;;;;;;;7.83;2.23;;;;;;;;;;5023838;28;20588;-63
2022/04/16 04:13:13;;;;;;;9.67;2.20;;;;;;;;;;5024405;28;21024;-62
2022/04/16 04:15:40;;;;;;;6.10;2.30;;;;;;;;;;5021791;28;20477;-61
2022/04/16 04:18:08;;;;;;;7.33;2.43;;;;;;;;;;5022434;28;20458;-62
2022/04/16 04:20:35;;;;;;;5.17;2.20;;;;;;;;;;5024104;28;20454;-60
2022/04/16 04:23:20;;;;;;;4.83;2.00;;;;;;;;;;5022487;28;20441;-61
2022/04/16 04:25:47;;;;;;;5.47;2.50;;;;;;;;;;5024149;28;20532;-60
2022/04/16 04:28:14;;;;;;;5.20;2.00;;;;;;;;;;5023871;28;20486;-61
2022/04/16 04:30:42;;;;;;;5.10;2.20;;;;;;;;;;5022175;28;20513;-63
2022/04/16 04:33:09;;;;;;;2.57;1.50;;;;;;;;;;5021850;28;20447;-62
2022/04/16 04:35:36;;;;;;;5.73;2.20;;;;;;;;;;5021604;28;20566;-63
2022/04/16 04:38:03;;;;;;;5.00;1.80;;;;;;;;;;5023085;28;20444;-63
2022/04/16 04:40:30;;;;;;;4.60;1.60;;;;;;;;;;5023245;28;20443;-63
2022/04/16 04:42:56;;;;;;;5.23;1.80;;;;;;;;;;5022955;28;20261;-63
2022/04/16 04:45:23;;;;;;;4.90;1.50;;;;;;;;;;5022526;28;20446;-61
2022/04/16 04:47:50;;;;;;;4.70;1.73;;;;;;;;;;5021172;28;20250;-62
2022/04/16 04:50:17;;;;;;;6.17;1.80;;;;;;;;;;5021004;28;20235;-61
2022/04/16 04:52:44;;;;;;;6.37;1.80;;;;;;;;;;5022241;28;20755;-61
2022/04/16 04:55:11;;;;;;;7.03;2.10;;;;;;;;;;5021684;28;20462;-57
2022/04/16 04:57:38;;;;;;;6.30;1.80;;;;;;;;;;5022580;28;20287;-59
2022/04/16 05:00:06;;;;;;;3.73;1.57;;;;;;;;;;5022532;28;20191;-62
2022/04/16 05:02:45;;;;;;;6.03;1.70;;;;;;;;;;5019840;28;20187;-60
2022/04/16 05:05:13;;;;;;;4.10;1.60;;;;;;;;;;5019073;28;20234;-60
2022/04/16 05:07:40;;;;;;;5.27;1.53;;;;;;;;;;5020768;28;20266;-61
2022/04/16 05:10:07;;;;;;;4.90;1.50;;;;;;;;;;5017273;28;20794;-60
2022/04/16 05:12:55;;;;;;;3.80;1.77;;;;;;;;;;5012805;28;20176;-57
2022/04/16 05:15:22;;;;;;;5.23;1.60;;;;;;;;;;5017021;28;20353;-60
2022/04/16 05:17:49;;;;;;;3.37;1.63;;;;;;;;;;5021865;28;20188;-60
2022/04/16 05:20:16;;;;;;;3.73;1.40;;;;;;;;;;5021714;28;20286;-59
2022/04/16 05:22:43;;;;;;;5.27;1.67;;;;;;;;;;5021859;28;20560;-61
2022/04/16 05:25:10;;;;;;;5.67;1.97;;;;;;;;;;5021753;28;20210;-61
2022/04/16 05:36:14;;;;;;;4.47;1.60;;;;;;;;;;4898050;29;20536;-66
2022/04/16 05:38:40;;;;;;;4.70;1.80;;;;;;;;;;4911422;29;20227;-66
2022/04/16 05:41:07;;;;;;;2.47;1.30;;;;;;;;;;4920640;29;20194;-64
2022/04/16 05:43:53;;;;;;;3.53;1.43;;;;;;;;;;4921663;29;20654;-68
2022/04/16 05:46:21;;;;;;;2.63;1.37;;;;;;;;;;4920193;29;20551;-68
2022/04/16 05:48:48;;;;;;;3.00;1.50;;;;;;;;;;4906899;29;20591;-66
2022/04/16 05:51:14;;;;;;;2.03;1.10;;;;;;;;;;4923597;29;20206;-67
2022/04/16 05:53:41;;;;;;;4.70;1.50;;;;;;;;;;4895324;29;20203;-61
2022/04/16 05:56:08;;;;;;;5.13;1.60;;;;;;;;;;4914896;29;20201;-61
2022/04/16 05:58:36;;;;;;;6.20;1.50;;;;;;;;;;4898228;29;20254;-61
2022/04/16 06:01:03;;;;;;;3.50;1.47;;;;;;;;;;4915039;29;20220;-62
2022/04/16 06:03:30;;;;;;;2.47;1.20;;;;;;;;;;4915052;29;20622;-61
2022/04/16 06:05:59;;;;;;;2.40;1.10;;;;;;;;;;4914903;29;20307;-61
2022/04/16 06:08:26;;;;;;;4.03;1.30;;;;;;;;;;4914638;29;20251;-61
2022/04/16 06:10:52;;;;;;;3.10;1.37;;;;;;;;;;4914848;29;20215;-61
2022/04/16 06:13:19;;;;;;;3.47;1.90;;;;;;;;;;4914736;29;20214;-61
2022/04/16 06:15:47;;;;;;;3.67;1.60;;;;;;;;;;4914857;29;20202;-62
2022/04/16 06:18:14;;;;;;;3.97;1.30;;;;;;;;;;4910288;29;20294;-63
2022/04/16 06:20:40;;;;;;;3.87;1.30;;;;;;;;;;4910294;29;20785;-64
2022/04/16 06:23:07;;;;;;;2.67;1.50;;;;;;;;;;4907919;29;20251;-61
2022/04/16 06:25:36;;;;;;;4.80;1.57;;;;;;;;;;4917107;29;20203;-62
2022/04/16 06:28:03;;;;;;;4.03;1.40;;;;;;;;;;4927332;29;20195;-63
2022/04/16 06:30:29;;;;;;;2.27;1.27;;;;;;;;;;4921888;29;20203;-62
2022/04/16 06:32:57;;;;;;;3.20;1.53;;;;;;;;;;4925172;29;20234;-62
2022/04/16 06:35:24;;;;;;;4.97;1.40;;;;;;;;;;4924619;29;20665;-63
2022/04/16 06:37:50;;;;;;;2.00;1.40;;;;;;;;;;4915570;29;20203;-62
2022/04/16 06:40:17;;;;;;;3.00;1.40;;;;;;;;;;4918337;29;20196;-63
2022/04/16 06:42:44;;;;;;;3.30;1.30;;;;;;;;;;4929902;29;20202;-64
2022/04/16 06:45:12;;;;;;;4.30;1.30;;;;;;;;;;4896259;29;20208;-63
2022/04/16 06:47:39;;;;;;;2.33;1.43;;;;;;;;;;4906616;29;20207;-63
2022/04/16 06:50:06;;;;;;;2.23;1.20;;;;;;;;;;4912145;29;20195;-63
2022/04/16 06:52:33;;;;;;;3.63;1.30;;;;;;;;;;4925287;29;20229;-64
2022/04/16 06:54:59;;;;;;;2.00;1.00;;;;;;;;;;4921090;29;20211;-64
2022/04/16 06:57:26;;;;;;;2.30;1.00;;;;;;;;;;4923143;29;20194;-62
2022/04/16 07:00:00;;;;;;;2.60;1.30;;;;;;;;;;4923105;29;20195;-63
2022/04/16 07:02:27;;;;;;;3.97;1.17;;;;;;;;;;4926370;29;20737;-63
2022/04/16 07:04:55;;;;;;;2.57;1.30;;;;;;;;;;4917844;29;20867;-63
2022/04/16 07:07:22;;;;;;;2.13;1.07;;;;;;;;;;4920540;29;20194;-63
2022/04/16 07:09:49;;;;;;;2.40;1.00;;;;;;;;;;4915956;29;20206;-64
2022/04/16 07:12:17;;;;;;;4.47;1.50;;;;;;;;;;4902147;29;20745;-64
2022/04/16 07:14:44;;;;;;;3.20;1.30;;;;;;;;;;4904343;29;20205;-64
2022/04/16 07:17:30;;;;;;;4.17;1.30;;;;;;;;;;4922305;29;20511;-65
2022/04/16 07:19:56;;;;;;;3.70;1.67;;;;;;;;;;4912247;29;20184;-63
2022/04/16 07:22:23;;;;;;;1.97;1.40;;;;;;;;;;4918702;29;20255;-64
2022/04/16 07:24:51;;;;;;;2.93;1.07;;;;;;;;;;4918165;29;20195;-64
2022/04/16 07:27:17;;;;;;;2.20;1.20;;;;;;;;;;4912590;29;20230;-64
2022/04/16 07:29:46;;;;;;;2.70;1.10;;;;;;;;;;4919457;29;20201;-64
2022/04/16 07:32:12;;;;;;;3.00;1.10;;;;;;;;;;4919673;29;20227;-64
2022/04/16 07:34:39;;;;;;;3.53;1.37;;;;;;;;;;4919144;29;20215;-64
2022/04/16 07:37:06;;;;;;;4.73;1.40;;;;;;;;;;4897641;29;20677;-64
2022/04/16 07:39:33;;;;;;;3.63;1.30;;;;;;;;;;4903618;29;20319;-64
2022/04/16 07:41:59;;;;;;;2.37;1.20;;;;;;;;;;4915998;29;20195;-64
2022/04/16 07:44:26;;;;;;;3.40;1.40;;;;;;;;;;4916222;29;20677;-64
2022/04/16 07:46:53;;;;;;;3.90;1.00;;;;;;;;;;4916499;29;20202;-65
2022/04/16 07:49:20;;;;;;;3.80;1.50;;;;;;;;;;4915471;29;20255;-65
2022/04/16 07:51:48;;;;;;;2.97;1.27;;;;;;;;;;4915857;29;20275;-64
2022/04/16 07:54:17;;;;;;;2.47;1.10;;;;;;;;;;4915912;29;20629;-63
2022/04/16 07:56:44;;;;;;;2.67;1.00;;;;;;;;;;4915953;29;20658;-64
2022/04/16 07:59:11;;;;;;;2.70;1.00;;;;;;;;;;4913670;29;20196;-63
2022/04/16 08:01:38;;;;;;;2.90;1.13;;;;;;;;;;4916175;29;20738;-63
2022/04/16 08:04:05;;;;;;;3.97;1.30;;;;;;;;;;4910797;29;20246;-62
2022/04/16 08:06:32;;;;;;;2.47;1.10;;;;;;;;;;4912460;29;20192;-64
2022/04/16 08:09:01;;;;;;;2.77;1.23;;;;;;;;;;4896973;29;20733;-64
2022/04/16 08:11:28;;;;;;;3.80;1.20;;;;;;;;;;4896594;29;20303;-63
2022/04/16 08:13:55;;;;;;;3.57;1.10;;;;;;;;;;4897930;29;20639;-64
2022/04/16 08:16:22;;;;;;;3.83;1.50;;;;;;;;;;4907490;29;20200;-63
2022/04/16 08:18:49;;;;;;;3.57;0.90;;;;;;;;;;4905555;29;20230;-64
2022/04/16 08:21:16;;;;;;;1.83;0.90;;;;;;;;;;4919748;29;20643;-64
2022/04/16 08:23:55;;;;;;;2.73;0.97;;;;;;;;;;4912602;29;20185;-63
2022/04/16 08:26:22;;;;;;;3.20;0.90;;;;;;;;;;4897512;29;20224;-63
2022/04/16 08:28:49;;;;;;;3.60;1.47;;;;;;;;;;4897055;29;20192;-63
2022/04/16 08:31:16;;;;;;;2.23;0.90;;;;;;;;;;4912200;29;20214;-63
2022/04/16 08:33:42;;;;;;;3.40;1.43;;;;;;;;;;4905776;29;20754;-63
2022/04/16 08:36:10;;;;;;;3.67;1.00;;;;;;;;;;4896913;29;20200;-63
2022/04/16 08:38:38;;;;;;;3.10;1.50;;;;;;;;;;4896871;29;20194;-63
2022/04/16 08:41:04;;;;;;;3.50;1.13;;;;;;;;;;4912944;29;20244;-63
2022/04/16 08:43:31;;;;;;;2.17;0.90;;;;;;;;;;4915846;29;20297;-63
2022/04/16 08:45:58;;;;;;;3.73;1.20;;;;;;;;;;4897083;29;20212;-64
2022/04/16 08:48:25;;;;;;;2.47;0.93;;;;;;;;;;4897177;29;20192;-63
2022/04/16 08:50:52;;;;;;;2.90;0.90;;;;;;;;;;4898469;29;20251;-63
2022/04/16 08:53:19;;;;;;;3.40;0.97;;;;;;;;;;4915411;29;20595;-63
2022/04/16 08:55:45;;;;;;;2.93;1.03;;;;;;;;;;4915583;29;20222;-63
2022/04/16 08:58:12;;;;;;;1.50;0.80;;;;;;;;;;4915735;29;20267;-63
2022/04/16 09:00:39;;;;;;;3.23;1.00;;;;;;;;;;4915247;29;20191;-62
2022/04/16 09:03:06;;;;;;;3.37;1.03;;;;;;;;;;4914782;29;20266;-63
2022/04/16 09:05:33;;;;;;;2.80;1.17;;;;;;;;;;4907488;29;20224;-63
2022/04/16 09:08:00;;;;;;;2.90;1.40;;;;;;;;;;4880112;29;20207;-63
2022/04/16 09:10:27;;;;;;;2.13;1.00;;;;;;;;;;4896986;29;20215;-63
2022/04/16 09:12:55;;;;;;;2.77;1.00;;;;;;;;;;4896823;29;20208;-63
2022/04/16 09:15:22;;;;;;;5.10;1.80;;;;;;;;;;4903385;29;20199;-63
2022/04/16 09:17:55;;;;;;;2.60;0.73;;;;;;;;;;4906311;29;20614;-63
2022/04/16 09:20:22;;;;;;;2.53;1.00;;;;;;;;;;4906209;29;20203;-62
2022/04/16 09:22:49;;;;;;;1.30;0.87;;;;;;;;;;4914750;29;20212;-62
2022/04/16 09:25:16;;;;;;;2.03;0.77;;;;;;;;;;4915701;29;20611;-65
2022/04/16 09:27:45;;;;;;;1.57;0.70;;;;;;;;;;4915549;29;20219;-66
2022/04/16 09:30:13;;;;;;;1.63;0.80;;;;;;;;;;4903966;29;20204;-65
2022/04/16 09:32:41;;;;;;;2.20;1.00;;;;;;;;;;4904164;29;20547;-66
2022/04/16 09:35:08;;;;;;;2.97;1.17;;;;;;;;;;4892250;29;20232;-65
2022/04/16 09:37:56;;;;;;;1.97;0.83;;;;;;;;;;4900146;29;20219;-65
2022/04/16 09:40:23;;;;;;;3.03;1.10;;;;;;;;;;4898425;29;20191;-67
2022/04/16 09:42:54;;;;;;;1.57;0.67;;;;;;;;;;4914466;29;20198;-68
2022/04/16 09:45:20;;;;;;;2.57;1.07;;;;;;;;;;4914910;29;20203;-68
2022/04/16 09:47:48;;;;;;;2.10;0.60;;;;;;;;;;4915042;29;20199;-68
2022/04/16 09:50:17;;;;;;;1.37;0.70;;;;;;;;;;4915271;29;20199;-67
2022/04/16 09:52:54;;;;;;;1.50;0.80;;;;;;;;;;4913062;29;20246;-68
2022/04/16 09:55:22;;;;;;;1.27;0.60;;;;;;;;;;4910819;29;20195;-67
2022/04/16 09:58:07;;;;;;;2.37;1.00;;;;;;;;;;4903894;29;20234;-67
2022/04/16 10:00:35;;;;;;;2.17;0.90;;;;;;;;;;4914290;29;20207;-66
2022/04/16 10:03:23;;;;;;;1.77;0.70;;;;;;;;;;4904517;29;20258;-66
2022/04/16 10:05:49;;;;;;;1.80;1.00;;;;;;;;;;4913503;29;20294;-66
2022/04/16 10:08:16;;;;;;;2.43;0.80;;;;;;;;;;4906875;29;20323;-68
2022/04/16 10:10:51;;;;;;;1.10;0.60;;;;;;;;;;4907919;29;20222;-68
2022/04/16 10:13:19;;;;;;;1.80;0.90;;;;;;;;;;4898622;29;20309;-68
2022/04/16 10:15:45;;;;;;;3.13;1.00;;;;;;;;;;4896780;29;20603;-67
2022/04/16 10:18:12;;;;;;;2.60;0.70;;;;;;;;;;4887754;29;20275;-65
2022/04/16 10:20:53;;;;;;;1.63;0.90;;;;;;;;;;4895863;29;20196;-65
2022/04/16 10:23:30;;;;;;;2.87;1.10;;;;;;;;;;4895910;29;20605;-66
2022/04/16 10:26:15;;;;;;;1.87;0.80;;;;;;;;;;4911284;29;20206;-68
2022/04/16 10:28:52;;;;;;;2.40;0.90;;;;;;;;;;4909957;29;20686;-66
2022/04/16 10:31:20;;;;;;;3.10;0.80;;;;;;;;;;4891964;29;20230;-66
2022/04/16 10:33:57;;;;;;;2.33;0.90;;;;;;;;;;4892956;29;20257;-65
2022/04/16 10:36:49;;;;;;;1.73;0.60;;;;;;;;;;4894520;29;20189;-68
2022/04/16 10:39:16;;;;;;;2.63;0.90;;;;;;;;;;4895753;29;20208;-66
2022/04/16 10:42:01;;;;;;;3.83;1.03;;;;;;;;;;4895166;29;20196;-66
2022/04/16 10:44:49;;;;;;;2.30;0.87;;;;;;;;;;4904129;29;20187;-68
2022/04/16 10:47:16;;;;;;;3.17;1.10;;;;;;;;;;4899836;29;20251;-66
2022/04/16 10:49:43;;;;;;;2.63;1.10;;;;;;;;;;4890822;29;20207;-66
2022/04/16 10:52:19;;;;;;;2.73;0.70;;;;;;;;;;4898897;29;20913;-66
2022/04/16 10:54:47;;;;;;;1.50;0.80;;;;;;;;;;4896849;29;20207;-67
2022/04/16 10:57:20;;;;;;;2.20;0.80;;;;;;;;;;4890783;29;20287;-66
2022/04/16 11:00:14;;;;;;;1.20;0.70;;;;;;;;;;4896015;29;20263;-66
2022/04/16 11:03:08;;;;;;;1.50;0.70;;;;;;;;;;4895286;29;20893;-65
2022/04/16 11:05:38;;;;;;;1.97;0.70;;;;;;;;;;4902604;29;20612;-67
2022/04/16 11:08:04;;;;;;;2.63;0.73;;;;;;;;;;4895743;29;20991;-66
2022/04/16 11:10:31;;;;;;;2.87;0.90;;;;;;;;;;4890173;29;20200;-67
2022/04/16 11:12:58;;;;;;;1.40;0.40;;;;;;;;;;4892291;29;20228;-69
2022/04/16 11:15:28;;;;;;;0.50;0.50;;;;;;;;;;4892377;29;20236;-65
2022/04/16 11:17:56;;;;;;;1.63;0.83;;;;;;;;;;4891820;29;20628;-67
2022/04/16 11:20:23;;;;;;;1.57;0.60;;;;;;;;;;4895932;29;20195;-67
2022/04/16 11:22:50;;;;;;;2.40;0.80;;;;;;;;;;4880583;29;20196;-66
2022/04/16 11:25:16;;;;;;;0.80;0.53;;;;;;;;;;4880118;29;20241;-66
2022/04/16 11:36:06;;;;;;;1.43;0.60;;;;;;;;;;4917622;29;20204;-65
2022/04/16 11:38:34;;;;;;;1.93;0.67;;;;;;;;;;4917453;29;20247;-65
2022/04/16 11:41:01;;;;;;;1.20;0.57;;;;;;;;;;4917255;29;20671;-65
2022/04/16 11:43:28;;;;;;;1.03;0.60;;;;;;;;;;4917454;29;20168;-65
2022/04/16 11:46:12;;;;;;;1.10;0.50;;;;;;;;;;4917348;29;20167;-65
2022/04/16 11:48:43;;;;;;;1.60;0.60;;;;;;;;;;4917251;29;20576;-65
2022/04/16 11:51:27;;;;;;;1.20;0.50;;;;;;;;;;4917339;29;20227;-65
2022/04/16 11:53:54;;;;;;;2.47;0.60;;;;;;;;;;4916896;29;20213;-65
2022/04/16 11:56:38;;;;;;;1.80;0.63;;;;;;;;;;4917007;29;20183;-66
2022/04/16 11:59:05;;;;;;;2.00;0.60;;;;;;;;;;4917066;29;20195;-65
2022/04/16 12:01:55;;;;;;;1.50;0.77;;;;;;;;;;4917140;29;20183;-65
2022/04/16 12:04:31;;;;;;;1.03;0.70;;;;;;;;;;4917264;29;20206;-65
2022/04/16 12:07:16;;;;;;;1.93;0.93;;;;;;;;;;4916963;29;20180;-65
2022/04/16 12:09:46;;;;;;;1.03;0.67;;;;;;;;;;4899882;29;20196;-65
2022/04/16 12:12:17;;;;;;;1.70;0.80;;;;;;;;;;4916825;29;20211;-65
2022/04/16 12:14:44;;;;;;;1.07;0.50;;;;;;;;;;4900099;29;20195;-65
2022/04/16 12:17:20;;;;;;;1.17;0.63;;;;;;;;;;4916684;29;20184;-65
2022/04/16 12:20:06;;;;;;;1.30;0.60;;;;;;;;;;4916771;29;20195;-65
2022/04/16 12:22:33;;;;;;;0.73;0.50;;;;;;;;;;4916784;29;20195;-65
2022/04/16 12:25:06;;;;;;;1.50;0.70;;;;;;;;;;4915720;29;20223;-66
2022/04/16 12:27:33;;;;;;;2.23;0.70;;;;;;;;;;4911585;29;20196;-65
2022/04/16 12:30:00;;;;;;;0.97;0.60;;;;;;;;;;4903385;29;20206;-66
2022/04/16 12:32:27;;;;;;;1.73;0.50;;;;;;;;;;4891932;29;20218;-65
2022/04/16 12:34:53;;;;;;;1.20;0.70;;;;;;;;;;4911565;29;20223;-64
2022/04/16 12:37:38;;;;;;;2.90;0.70;;;;;;;;;;4882050;29;20176;-64
2022/04/16 12:40:05;;;;;;;1.63;0.70;;;;;;;;;;4904960;29;20195;-64
2022/04/16 12:42:33;;;;;;;1.13;0.70;;;;;;;;;;4916851;29;20274;-65
2022/04/16 12:45:00;;;;;;;3.13;1.70;;;;;;;;;;4916244;29;20279;-65
2022/04/16 12:47:27;;;;;;;2.70;1.70;;;;;;;;;;4898951;29;20722;-65
2022/04/16 12:49:53;;;;;;;1.80;0.93;;;;;;;;;;4915993;29;20194;-65
2022/04/16 12:52:20;;;;;;;1.10;0.80;;;;;;;;;;4916035;29;20223;-65
2022/04/16 12:54:47;;;;;;;4.23;1.07;;;;;;;;;;4916010;29;20753;-65
2022/04/16 12:57:14;;;;;;;2.00;1.30;;;;;;;;;;4900030;29;20196;-65
2022/04/16 12:59:41;;;;;;;1.20;0.80;;;;;;;;;;4897031;29;20183;-65
2022/04/16 13:02:08;;;;;;;2.90;1.00;;;;;;;;;;4897100;29;20268;-65
2022/04/16 13:04:35;;;;;;;1.60;1.23;;;;;;;;;;4899025;29;20634;-66
2022/04/16 13:07:02;;;;;;;1.43;0.90;;;;;;;;;;4911842;29;20718;-66
2022/04/16 13:09:29;;;;;;;1.70;0.80;;;;;;;;;;4913898;29;20203;-66
2022/04/16 13:11:57;;;;;;;2.07;0.90;;;;;;;;;;4906902;29;20203;-65
2022/04/16 13:14:25;;;;;;;3.17;0.97;;;;;;;;;;4901919;29;20576;-66
2022/04/16 13:16:52;;;;;;;1.60;1.40;;;;;;;;;;4911227;29;20196;-65
2022/04/16 13:19:19;;;;;;;4.27;2.40;;;;;;;;;;4890839;29;20263;-65
2022/04/16 13:21:45;;;;;;;3.37;2.43;;;;;;;;;;4913942;29;20292;-65
2022/04/16 13:24:15;;;;;;;1.87;1.17;;;;;;;;;;4904793;29;20188;-64
2022/04/16 13:26:44;;;;;;;1.37;0.63;;;;;;;;;;4909178;29;20196;-65
2022/04/16 13:29:11;;;;;;;2.03;0.80;;;;;;;;;;4898167;29;20364;-66
2022/04/16 13:31:38;;;;;;;2.67;0.80;;;;;;;;;;4909221;29;20196;-65
2022/04/16 13:34:06;;;;;;;2.47;1.00;;;;;;;;;;4903725;29;20238;-65
2022/04/16 13:36:33;;;;;;;0.80;0.67;;;;;;;;;;4912709;29;20187;-65
2022/04/16 13:39:00;;;;;;;1.93;0.90;;;;;;;;;;4923336;29;20197;-66
2022/04/16 13:41:39;;;;;;;2.87;0.90;;;;;;;;;;4917818;29;20195;-65
2022/04/16 13:44:06;;;;;;;2.50;0.97;;;;;;;;;;4896509;29;20214;-65
2022/04/16 13:46:51;;;;;;;4.37;2.10;;;;;;;;;;4900117;29;20192;-65
2022/04/16 13:49:18;;;;;;;1.27;0.67;;;;;;;;;;4911781;29;20314;-65
2022/04/16 13:51:47;;;;;;;2.37;1.50;;;;;;;;;;4911263;29;20200;-66
2022/04/16 13:54:14;;;;;;;3.57;1.20;;;;;;;;;;4912787;29;20247;-65
2022/04/16 13:56:41;;;;;;;2.27;1.30;;;;;;;;;;4913377;29;20199;-65
2022/04/16 13:59:27;;;;;;;1.30;0.80;;;;;;;;;;4898367;29;20683;-65
2022/04/16 14:01:54;;;;;;;5.93;2.83;;;;;;;;;;4906811;29;20215;-65
2022/04/16 14:07:24;;;;;;;1.17;0.80;;;;;;;;;;4898256;29;20611;-65
2022/04/16 14:09:53;;;;;;;1.00;0.70;;;;;;;;;;4912311;29;20207;-65
2022/04/16 14:12:20;;;;;;;1.40;0.60;;;;;;;;;;4911613;29;20195;-66
2022/04/16 14:14:47;;;;;;;1.13;0.50;;;;;;;;;;4913525;29;20195;-65
2022/04/16 14:17:14;;;;;;;1.43;0.77;;;;;;;;;;4913684;29;20199;-67
2022/04/16 14:19:42;;;;;;;0.80;0.50;;;;;;;;;;4912256;29;20202;-65
2022/04/16 14:22:09;;;;;;;5.83;1.20;;;;;;;;;;4911980;29;20198;-66
2022/04/16 14:24:36;;;;;;;1.37;0.70;;;;;;;;;;4912192;29;20192;-65
2022/04/16 14:27:05;;;;;;;1.70;0.50;;;;;;;;;;4915237;29;20282;-65
2022/04/16 14:29:33;;;;;;;1.87;0.87;;;;;;;;;;4913232;29;20192;-66
2022/04/16 14:32:00;;;;;;;5.93;0.77;;;;;;;;;;4896100;29;20203;-65
2022/04/16 14:34:27;;;;;;;1.53;0.87;;;;;;;;;;4911928;29;20231;-65
2022/04/16 14:36:56;;;;;;;3.93;1.07;;;;;;;;;;4912782;29;20219;-66
2022/04/16 14:39:22;;;;;;;1.33;1.00;;;;;;;;;;4912646;29;20195;-65
2022/04/16 14:41:49;;;;;;;1.80;0.53;;;;;;;;;;4917885;29;20294;-65
2022/04/16 14:44:17;;;;;;;1.90;0.90;;;;;;;;;;4904677;29;20262;-66
2022/04/16 14:46:44;;;;;;;1.00;0.77;;;;;;;;;;4913429;29;20479;-67
2022/04/16 14:49:12;;;;;;;1.27;0.80;;;;;;;;;;4910462;29;20194;-67
2022/04/16 14:51:43;;;;;;;1.47;0.70;;;;;;;;;;4915043;29;20198;-68
2022/04/16 14:54:10;;;;;;;2.17;1.03;;;;;;;;;;4914270;29;20219;-66
2022/04/16 14:56:37;;;;;;;0.90;0.50;;;;;;;;;;4913856;29;20270;-66
2022/04/16 14:59:06;;;;;;;1.13;0.50;;;;;;;;;;4914359;29;20222;-66
2022/04/16 15:01:32;;;;;;;1.30;0.70;;;;;;;;;;4915140;29;20609;-66
2022/04/16 15:03:59;;;;;;;2.80;1.10;;;;;;;;;;4906468;29;20203;-66
2022/04/16 15:06:26;;;;;;;1.37;0.70;;;;;;;;;;4893375;29;20781;-66
2022/04/16 15:08:53;;;;;;;1.27;0.60;;;;;;;;;;4906682;29;20622;-66
2022/04/16 15:11:19;;;;;;;1.73;0.90;;;;;;;;;;4898730;29;20794;-66
2022/04/16 15:13:46;;;;;;;2.67;0.80;;;;;;;;;;4906860;29;20227;-66
2022/04/16 15:16:30;;;;;;;1.63;0.70;;;;;;;;;;4905020;29;20231;-65
2022/04/16 15:18:57;;;;;;;9.50;1.40;;;;;;;;;;4919228;29;20265;-66
2022/04/16 15:21:26;;;;;;;1.60;0.73;;;;;;;;;;4908201;29;20667;-65
2022/04/16 15:23:52;;;;;;;4.77;1.30;;;;;;;;;;4888926;29;20335;-65
2022/04/16 15:26:19;;;;;;;1.17;0.50;;;;;;;;;;4914541;29;20205;-65